Time;durP1;ratioP1;P1;durP2;ratioP2;P2;SDS_P1;SDS_P2;PMS_P1;PMS_P2;Temp;Humidity;BMP_temperature;BMP_pressure;BME280_temperature;BME280_humidity;BME280_pressure;Samples;Min_cycle;Max_cycle;Signal;HPM_P1;HPM_P2
2022/06/16 00:01:07;;;;;;;9.75;3.00;;;;;;;29.11;35.91;98791.50;5033086;28;20025;-49
2022/06/16 00:03:33;;;;;;;9.90;2.80;;;;;;;28.90;36.00;98785.16;5015190;28;20053;-49
2022/06/16 00:05:59;;;;;;;9.68;3.03;;;;;;;28.64;36.70;98784.03;5032930;28;20025;-49
2022/06/16 00:08:25;;;;;;;7.85;2.75;;;;;;;28.55;36.91;98794.03;5032858;28;20033;-49
2022/06/16 00:13:39;;;;;;;12.40;3.95;;;;;;;28.39;37.39;98780.19;5032655;28;20127;-49
2022/06/16 00:16:06;;;;;;;10.93;3.75;;;;;;;28.37;37.06;98785.13;5032825;28;20036;-49
2022/06/16 00:18:33;;;;;;;11.57;3.13;;;;;;;28.37;37.20;98773.50;5032695;28;20079;-49
2022/06/16 00:20:59;;;;;;;9.00;2.95;;;;;;;28.38;37.85;98777.81;5032584;28;20026;-48
2022/06/16 00:23:25;;;;;;;8.93;2.42;;;;;;;28.37;38.62;98779.72;5014910;28;20021;-48
2022/06/16 00:25:50;;;;;;;15.85;4.30;;;;;;;28.31;38.74;98774.78;5014800;28;20022;-49
2022/06/16 00:28:16;;;;;;;10.18;3.00;;;;;;;28.15;39.11;98775.25;5032520;28;20040;-49
2022/06/16 00:30:42;;;;;;;10.88;3.20;;;;;;;28.05;39.02;98770.13;5032429;28;20025;-49
2022/06/16 00:33:08;;;;;;;12.73;3.10;;;;;;;27.93;39.19;98775.31;5014643;28;20490;-48
2022/06/16 00:35:34;;;;;;;9.82;2.80;;;;;;;27.74;39.44;98778.25;5014630;28;20025;-49
2022/06/16 00:38:01;;;;;;;14.05;4.40;;;;;;;27.59;40.06;98782.97;5014628;28;20058;-48
2022/06/16 00:40:27;;;;;;;10.18;2.97;;;;;;;27.49;40.52;98775.94;5032267;28;20044;-49
2022/06/16 00:42:52;;;;;;;9.60;3.55;;;;;;;27.36;40.89;98771.41;5032249;28;20483;-49
2022/06/16 00:45:53;;;;;;;12.48;2.72;;;;;;;27.41;41.40;98767.81;5032293;28;20032;-49
2022/06/16 00:48:25;;;;;;;11.27;3.50;;;;;;;27.38;40.04;98761.13;5014303;28;20030;-49
2022/06/16 00:50:57;;;;;;;9.05;2.67;;;;;;;27.39;39.48;98756.53;5014390;28;20033;-48
2022/06/16 00:53:24;;;;;;;16.15;3.38;;;;;;;27.34;40.28;98762.84;5032249;28;20490;-49
2022/06/16 00:55:51;;;;;;;11.73;2.95;;;;;;;27.35;38.92;98766.34;5032121;28;20108;-49
2022/06/16 00:58:19;;;;;;;9.02;3.22;;;;;;;27.55;40.47;98760.41;5014212;28;20026;-49
2022/06/16 01:00:45;;;;;;;8.50;3.10;;;;;;;27.57;40.54;98768.16;5032019;28;20029;-48
2022/06/16 01:03:11;;;;;;;10.00;3.25;;;;;;;27.53;40.10;98768.03;5032033;28;20025;-49
2022/06/16 01:05:39;;;;;;;6.43;2.65;;;;;;;27.53;39.82;98762.63;5014231;28;20029;-50
2022/06/16 01:08:07;;;;;;;7.47;2.92;;;;;;;27.54;40.84;98761.50;5032079;28;20115;-48
2022/06/16 01:10:46;;;;;;;7.75;3.03;;;;;;;27.50;40.96;98753.25;5014175;28;20510;-49
2022/06/16 01:13:42;;;;;;;7.38;2.72;;;;;;;27.61;38.75;98756.47;5014234;28;20124;-49
2022/06/16 01:16:29;;;;;;;7.47;2.70;;;;;;;27.67;38.67;98752.53;5014144;28;20463;-48
2022/06/16 01:19:03;;;;;;;10.73;3.33;;;;;;;27.70;39.25;98762.69;5014049;28;20026;-49
2022/06/16 01:21:34;;;;;;;9.15;3.28;;;;;;;27.72;38.32;98748.91;5031838;28;20033;-49
2022/06/16 01:24:31;;;;;;;11.30;3.03;;;;;;;27.76;39.82;98751.78;5031798;28;20056;-48
2022/06/16 01:27:22;;;;;;;11.55;2.65;;;;;;;27.65;39.28;98745.88;5014087;28;20405;-49
2022/06/16 01:30:11;;;;;;;13.77;2.58;;;;;;;27.54;40.39;98748.03;5031825;28;20406;-50
2022/06/16 01:33:00;;;;;;;8.85;2.80;;;;;;;27.34;40.33;98743.97;5031726;28;20384;-48
2022/06/16 01:35:44;;;;;;;8.57;3.15;;;;;;;27.07;40.83;98747.63;5014235;28;20027;-48
2022/06/16 01:38:13;;;;;;;6.53;2.83;;;;;;;26.76;41.66;98753.72;5031656;28;20025;-49
2022/06/16 01:41:00;;;;;;;11.35;3.10;;;;;;;26.63;42.91;98747.31;5031617;28;20033;-49
2022/06/16 01:43:35;;;;;;;7.47;2.80;;;;;;;26.34;42.72;98750.38;5031662;28;20025;-49
2022/06/16 01:46:12;;;;;;;12.95;3.58;;;;;;;26.22;43.54;98761.66;5031640;28;20030;-47
2022/06/16 01:48:42;;;;;;;11.13;3.53;;;;;;;26.08;43.89;98756.28;5031551;28;20025;-48
2022/06/16 01:51:17;;;;;;;7.70;3.08;;;;;;;26.00;44.30;98766.97;5031600;28;20026;-49
2022/06/16 01:53:52;;;;;;;;;;;;;;;25.99;43.88;98768.84;5014192;28;20026;-48
2022/06/16 01:56:25;;;;;;;12.35;3.25;;;;;;;25.94;44.25;98768.97;5031482;28;19909;-47
2022/06/16 01:59:02;;;;;;;10.98;4.25;;;;;;;25.96;44.52;98765.94;5031459;28;20033;-47
2022/06/16 02:01:31;;;;;;;8.20;3.10;;;;;;;25.91;44.01;98764.94;5015455;28;20029;-47
2022/06/16 02:04:07;;;;;;;7.93;3.47;;;;;;;25.84;45.07;98761.06;5017926;28;20027;-47
2022/06/16 02:06:41;;;;;;;8.15;3.10;;;;;;;25.68;45.11;98753.28;5017368;28;20083;-47
2022/06/16 02:09:12;;;;;;;15.82;4.75;;;;;;;25.66;45.81;98758.16;5035537;28;20049;-47
2022/06/16 02:11:42;;;;;;;9.82;3.30;;;;;;;25.59;45.86;98760.44;5035179;28;20037;-48
2022/06/16 02:14:29;;;;;;;10.90;3.40;;;;;;;25.60;46.35;98761.25;5034769;28;20053;-47
2022/06/16 02:16:55;;;;;;;15.15;4.47;;;;;;;25.54;46.31;98754.38;5017227;28;20144;-46
2022/06/16 02:19:23;;;;;;;14.70;3.70;;;;;;;25.56;46.34;98752.19;5034930;28;20487;-48
2022/06/16 02:21:51;;;;;;;8.25;3.38;;;;;;;25.64;46.50;98764.94;5034911;28;20068;-47
2022/06/16 02:24:20;;;;;;;12.13;3.63;;;;;;;25.65;46.71;98772.69;5034883;28;20108;-47
2022/06/16 02:26:48;;;;;;;14.73;3.70;;;;;;;25.57;46.73;98778.75;5034773;28;20029;-47
2022/06/16 02:29:37;;;;;;;11.57;3.80;;;;;;;25.46;47.02;98772.00;5017057;28;20029;-47
2022/06/16 02:32:36;;;;;;;17.67;3.97;;;;;;;25.40;47.37;98779.34;5034758;28;20025;-47
2022/06/16 02:35:34;;;;;;;11.48;3.40;;;;;;;25.37;47.53;98777.22;5034599;28;20029;-47
2022/06/16 02:38:18;;;;;;;11.98;3.80;;;;;;;25.34;47.46;98775.16;5034702;28;20052;-47
2022/06/16 02:41:04;;;;;;;14.52;3.60;;;;;;;25.22;47.65;98778.28;5016831;28;20048;-47
2022/06/16 02:43:48;;;;;;;14.75;5.07;;;;;;;25.03;48.14;98772.13;5016781;28;20029;-47
2022/06/16 02:46:30;;;;;;;11.70;4.22;;;;;;;24.89;48.47;98782.81;5034511;28;20033;-47
2022/06/16 02:49:31;;;;;;;12.35;4.10;;;;;;;24.84;48.75;98785.59;5016751;28;20034;-48
2022/06/16 02:52:10;;;;;;;10.48;3.80;;;;;;;24.79;48.92;98775.75;5034405;28;20124;-48
2022/06/16 02:54:55;;;;;;;16.40;4.30;;;;;;;24.90;48.67;98784.44;5034399;28;20490;-48
2022/06/16 02:57:32;;;;;;;8.25;3.92;;;;;;;24.92;48.45;98782.25;5034494;28;20053;-48
2022/06/16 03:00:02;;;;;;;8.90;3.85;;;;;;;24.75;48.67;98780.09;5034140;28;20124;-48
2022/06/16 03:02:29;;;;;;;9.57;3.72;;;;;;;24.67;48.89;98786.09;5016666;28;20026;-47
2022/06/16 03:04:57;;;;;;;9.07;3.30;;;;;;;24.60;48.90;98785.69;5016368;28;20116;-47
2022/06/16 03:07:25;;;;;;;7.95;3.75;;;;;;;24.52;49.02;98787.91;5034088;28;20026;-48
2022/06/16 03:09:51;;;;;;;13.77;4.82;;;;;;;24.43;49.58;98792.31;5034095;28;20113;-48
2022/06/16 03:12:18;;;;;;;8.90;3.70;;;;;;;24.44;49.45;98790.44;5015882;28;20462;-47
2022/06/16 03:14:44;;;;;;;13.23;4.50;;;;;;;24.43;49.60;98795.00;5033723;28;20045;-47
2022/06/16 03:17:12;;;;;;;12.32;3.92;;;;;;;24.44;49.90;98795.78;5033909;28;20033;-48
2022/06/16 03:19:38;;;;;;;9.05;3.15;;;;;;;24.39;49.76;98795.84;5033817;28;20028;-48
2022/06/16 03:22:04;;;;;;;10.00;3.65;;;;;;;24.30;49.95;98790.34;5016047;28;20018;-47
2022/06/16 03:24:30;;;;;;;11.65;3.60;;;;;;;24.32;49.68;98801.56;5033750;28;20036;-47
2022/06/16 03:26:56;;;;;;;8.75;3.30;;;;;;;24.33;49.30;98795.94;5015940;28;20399;-48
2022/06/16 03:29:23;;;;;;;12.68;4.22;;;;;;;24.29;49.46;98796.81;5033706;28;20033;-48
2022/06/16 03:31:48;;;;;;;8.98;3.15;;;;;;;24.28;49.50;98806.72;5015852;28;20018;-47
2022/06/16 03:34:14;;;;;;;10.50;3.50;;;;;;;24.23;49.64;98804.09;5033558;28;20044;-47
2022/06/16 03:36:40;;;;;;;14.82;4.05;;;;;;;24.21;49.74;98810.84;5015764;28;20105;-47
2022/06/16 03:39:06;;;;;;;9.65;3.85;;;;;;;24.11;49.86;98811.75;5033421;28;20112;-47
2022/06/16 03:41:32;;;;;;;12.05;3.88;;;;;;;24.05;50.00;98819.06;5033454;28;20550;-48
2022/06/16 03:43:59;;;;;;;14.27;3.75;;;;;;;24.01;50.41;98818.03;5015649;28;20021;-47
2022/06/16 03:46:24;;;;;;;14.43;3.53;;;;;;;24.08;50.19;98826.53;5033353;28;20029;-47
2022/06/16 03:48:51;;;;;;;16.30;4.53;;;;;;;24.10;50.05;98827.03;5033327;28;20075;-48
2022/06/16 03:51:17;;;;;;;16.83;3.90;;;;;;;24.21;50.56;98830.41;5033290;28;20022;-49
2022/06/16 03:53:42;;;;;;;19.58;3.90;;;;;;;24.38;50.35;98831.81;5033255;28;20048;-49
2022/06/16 03:56:10;;;;;;;10.25;3.50;;;;;;;24.55;49.69;98829.50;5033176;28;20030;-49
2022/06/16 03:58:35;;;;;;;22.20;4.00;;;;;;;24.70;49.31;98831.16;5033061;28;20033;-49
2022/06/16 04:01:01;;;;;;;19.10;4.35;;;;;;;24.83;49.23;98833.13;5033100;28;20445;-49
2022/06/16 04:06:12;;;;;;;11.70;3.15;;;;;;;25.05;48.14;98843.28;5033281;28;20024;-49
2022/06/16 04:08:38;;;;;;;9.90;3.60;;;;;;;25.07;47.76;98851.03;5032889;28;20033;-49
2022/06/16 04:11:26;;;;;;;12.02;3.75;;;;;;;25.09;47.58;98855.03;5015092;28;20057;-49
2022/06/16 04:13:50;;;;;;;12.73;3.72;;;;;;;25.07;47.67;98853.69;5032389;28;20469;-49
2022/06/16 04:16:16;;;;;;;9.65;3.72;;;;;;;25.03;47.89;98856.19;5032841;28;20029;-49
2022/06/16 04:18:42;;;;;;;7.93;2.80;;;;;;;25.09;47.57;98860.41;5032664;28;20462;-49
2022/06/16 04:21:10;;;;;;;8.55;3.33;;;;;;;25.11;47.57;98866.28;5014933;28;20065;-49
2022/06/16 04:23:35;;;;;;;14.05;4.25;;;;;;;25.36;47.15;98869.69;4997982;28;20036;-49
2022/06/16 04:26:01;;;;;;;9.57;3.88;;;;;;;25.70;46.21;98866.69;5032580;28;20022;-49
2022/06/16 04:28:27;;;;;;;16.35;3.65;;;;;;;26.08;45.36;98869.25;5032567;28;20055;-48
2022/06/16 04:30:52;;;;;;;14.95;3.55;;;;;;;26.41;44.78;98863.75;5014709;28;20483;-49
2022/06/16 04:33:19;;;;;;;11.85;4.05;;;;;;;26.59;44.52;98872.06;5014998;28;20032;-48
2022/06/16 04:35:44;;;;;;;9.30;3.72;;;;;;;26.80;44.11;98875.91;5032485;28;20061;-49
2022/06/16 04:38:10;;;;;;;22.50;4.25;;;;;;;26.83;44.49;98872.59;5014650;28;20550;-48
2022/06/16 04:40:36;;;;;;;13.98;3.58;;;;;;;26.87;44.34;98876.28;5014460;28;20403;-48
2022/06/16 04:43:02;;;;;;;14.55;4.00;;;;;;;26.94;43.98;98872.38;5032344;28;20402;-48
2022/06/16 04:45:28;;;;;;;9.25;3.58;;;;;;;27.00;43.71;98874.63;5032301;28;20397;-48
2022/06/16 04:47:53;;;;;;;9.13;3.40;;;;;;;27.07;43.29;98876.94;5032229;28;20113;-49
2022/06/16 04:50:19;;;;;;;13.48;3.28;;;;;;;27.44;42.26;98889.25;5032154;28;20034;-48
2022/06/16 04:52:47;;;;;;;11.07;4.53;;;;;;;27.93;42.05;98884.03;5032185;28;20394;-49
2022/06/16 04:55:15;;;;;;;12.30;4.05;;;;;;;28.65;40.41;98887.47;5014344;28;20393;-49
2022/06/16 04:57:40;;;;;;;20.73;3.72;;;;;;;29.34;39.46;98888.63;5014367;28;20033;-49
2022/06/16 05:00:08;;;;;;;410.95;375.42;;;;;;;29.93;38.09;98896.97;5031968;28;20080;-49
2022/06/16 05:02:34;;;;;;;126.70;114.22;;;;;;;30.58;36.75;98902.25;5032035;28;20033;-49
2022/06/16 05:04:59;;;;;;;51.00;45.45;;;;;;;31.23;35.57;98897.31;5032000;28;20021;-49
2022/06/16 05:07:25;;;;;;;33.95;22.90;;;;;;;31.67;34.36;98902.38;5030679;28;20623;-48
2022/06/16 05:09:51;;;;;;;9.32;4.85;;;;;;;31.95;33.33;98903.31;5014198;28;20412;-49
2022/06/16 05:12:16;;;;;;;13.45;4.43;;;;;;;32.09;33.10;98903.03;5014076;28;20402;-49
2022/06/16 05:14:42;;;;;;;16.63;4.75;;;;;;;32.22;32.76;98899.19;5013848;28;20048;-48
2022/06/16 05:17:08;;;;;;;11.02;5.88;;;;;;;32.36;33.13;98907.00;5031818;28;20216;-49
2022/06/16 05:19:33;;;;;;;20.10;8.52;;;;;;;32.63;32.22;98896.59;5031678;28;20025;-49
2022/06/16 05:22:01;;;;;;;9.80;5.32;;;;;;;32.68;31.90;98909.16;5014057;28;20029;-49
2022/06/16 05:24:27;;;;;;;18.50;5.90;;;;;;;32.49;32.16;98896.13;5031756;28;20021;-48
2022/06/16 05:26:54;;;;;;;13.02;4.13;;;;;;;32.13;32.87;98900.44;5013929;28;20028;-48
2022/06/16 05:29:20;;;;;;;7.45;3.22;;;;;;;32.11;32.25;98897.28;5031707;28;20030;-49
2022/06/16 05:31:46;;;;;;;9.80;4.45;;;;;;;32.24;32.42;98893.44;5013989;28;20540;-48
2022/06/16 05:34:12;;;;;;;16.33;7.53;;;;;;;32.59;31.87;98892.97;5031680;28;20079;-49
2022/06/16 05:36:38;;;;;;;13.00;6.32;;;;;;;33.16;31.53;98894.69;5035437;28;20025;-48
2022/06/16 05:39:06;;;;;;;10.27;4.18;;;;;;;32.59;31.71;98888.34;5035683;28;20076;-48
2022/06/16 05:41:32;;;;;;;25.15;7.05;;;;;;;31.66;33.22;98893.44;5017935;28;20088;-48
2022/06/16 05:43:58;;;;;;;8.75;4.57;;;;;;;31.11;34.27;98902.69;5035670;28;20030;-48
2022/06/16 05:46:24;;;;;;;18.98;6.38;;;;;;;31.43;34.19;98901.94;5035579;28;20028;-47
2022/06/16 05:48:53;;;;;;;16.38;5.28;;;;;;;32.18;32.87;98903.72;5017779;28;20494;-48
2022/06/16 05:51:19;;;;;;;16.80;4.95;;;;;;;32.67;31.76;98899.44;5035512;28;20028;-48
2022/06/16 05:53:45;;;;;;;8.73;4.03;;;;;;;32.29;32.60;98904.06;5035422;28;20025;-48
2022/06/16 05:56:12;;;;;;;14.25;4.65;;;;;;;32.41;32.49;98900.56;5017577;28;20025;-48
2022/06/16 05:58:38;;;;;;;15.30;4.22;;;;;;;33.10;31.43;98904.22;5035292;28;20548;-48
2022/06/16 06:01:08;;;;;;;10.88;3.78;;;;;;;33.88;30.45;98891.13;5017492;28;20025;-47
2022/06/16 06:03:35;;;;;;;9.48;3.47;;;;;;;34.58;29.49;98893.19;5035305;28;20026;-48
2022/06/16 06:06:01;;;;;;;10.45;3.40;;;;;;;34.89;28.93;98896.19;5035208;28;20026;-48
2022/06/16 06:16:54;;;;;;;18.33;4.80;;;;;;;35.75;27.32;98897.88;5035388;28;20076;-48
2022/06/16 06:19:26;;;;;;;12.38;3.95;;;;;;;36.08;26.92;98899.19;5034980;28;20030;-48
2022/06/16 06:22:14;;;;;;;11.30;3.50;;;;;;;37.06;26.31;98894.75;5035050;28;20034;-48
2022/06/16 06:24:53;;;;;;;14.75;3.60;;;;;;;37.57;25.38;98896.13;5017257;28;20037;-48
2022/06/16 06:27:29;;;;;;;10.65;3.22;;;;;;;38.30;23.85;98885.41;5035138;28;20080;-49
2022/06/16 06:29:55;;;;;;;11.43;2.88;;;;;;;38.65;23.75;98888.75;5017143;28;20414;-49
2022/06/16 06:32:23;;;;;;;11.23;3.38;;;;;;;38.95;23.67;98894.75;5016970;28;20026;-49
2022/06/16 06:34:49;;;;;;;12.35;3.47;;;;;;;39.40;23.44;98888.25;5016936;28;20039;-49
2022/06/16 06:37:17;;;;;;;10.52;3.85;;;;;;;39.58;23.99;98889.09;5034681;28;20025;-49
2022/06/16 06:39:43;;;;;;;12.60;3.63;;;;;;;40.03;22.43;98892.28;5034632;28;20554;-48
2022/06/16 06:42:10;;;;;;;22.00;3.40;;;;;;;40.22;22.51;98893.03;5034571;28;20387;-48
2022/06/16 06:44:35;;;;;;;11.98;3.42;;;;;;;40.43;21.92;98897.72;5034546;28;20099;-48
2022/06/16 06:47:02;;;;;;;20.20;4.00;;;;;;;40.86;21.75;98887.41;5033768;28;20394;-48
2022/06/16 06:49:28;;;;;;;12.27;3.40;;;;;;;41.33;21.53;98892.69;5034472;28;20398;-49
2022/06/16 06:51:54;;;;;;;10.93;3.45;;;;;;;41.92;20.62;98892.69;5034388;28;20025;-48
2022/06/16 06:54:20;;;;;;;13.35;3.33;;;;;;;42.07;20.23;98893.34;5034601;28;20390;-50
2022/06/16 06:56:48;;;;;;;12.43;2.83;;;;;;;42.93;19.49;98891.66;5034330;28;20021;-52
2022/06/16 06:59:18;;;;;;;19.30;3.40;;;;;;;43.55;19.09;98894.34;5016428;28;20029;-51
2022/06/16 07:01:45;;;;;;;15.55;2.78;;;;;;;44.34;18.15;98890.31;5034208;28;20067;-52
2022/06/16 07:04:11;;;;;;;12.95;3.42;;;;;;;44.79;18.84;98885.06;5034228;28;20022;-52
2022/06/16 07:06:38;;;;;;;16.33;3.40;;;;;;;44.72;19.49;98890.00;5034174;28;20151;-51
2022/06/16 07:09:05;;;;;;;14.65;3.30;;;;;;;44.83;18.63;98887.75;5034164;28;20033;-53
2022/06/16 07:11:31;;;;;;;11.40;3.38;;;;;;;45.03;18.75;98891.28;5016238;28;20521;-51
2022/06/16 07:13:58;;;;;;;12.13;3.40;;;;;;;45.16;18.90;98879.53;5033696;28;20054;-51
2022/06/16 07:16:24;;;;;;;10.65;3.10;;;;;;;44.89;19.08;98882.53;5033939;28;20017;-51
2022/06/16 07:18:49;;;;;;;16.60;3.65;;;;;;;44.79;19.34;98884.28;5016062;28;20052;-52
2022/06/16 07:21:15;;;;;;;15.40;3.60;;;;;;;45.02;18.55;98884.22;5015934;28;20033;-50
2022/06/16 07:23:42;;;;;;;16.65;3.95;;;;;;;45.10;18.98;98886.81;5033886;28;20099;-52
2022/06/16 07:26:08;;;;;;;17.15;3.70;;;;;;;45.12;18.81;98890.72;5033786;28;20025;-50
2022/06/16 07:28:34;;;;;;;11.75;3.60;;;;;;;45.03;19.09;98885.75;5034012;28;20040;-52
2022/06/16 07:31:00;;;;;;;13.27;4.25;;;;;;;45.02;19.30;98892.53;5033730;28;20021;-53
2022/06/16 07:33:29;;;;;;;10.25;3.88;;;;;;;44.90;19.11;98895.97;5033655;28;20517;-53
2022/06/16 07:35:55;;;;;;;11.80;3.88;;;;;;;45.04;18.99;98909.50;5033555;28;20079;-51
2022/06/16 07:38:24;;;;;;;12.50;3.40;;;;;;;45.03;18.99;98898.84;5015663;28;20083;-52
2022/06/16 07:40:50;;;;;;;20.58;4.03;;;;;;;45.38;18.69;98891.75;5033433;28;20594;-52
2022/06/16 07:43:15;;;;;;;16.38;3.70;;;;;;;45.62;18.45;98905.41;5033410;28;20096;-53
2022/06/16 07:45:41;;;;;;;18.33;3.50;;;;;;;45.70;18.19;98906.06;5015594;28;20029;-51
2022/06/16 07:48:07;;;;;;;13.35;3.70;;;;;;;45.81;18.45;98903.81;5033347;28;20025;-52
2022/06/16 07:50:38;;;;;;;13.20;4.30;;;;;;;46.26;18.04;98902.28;5033493;28;20026;-51
2022/06/16 07:53:05;;;;;;;14.57;4.80;;;;;;;46.35;18.42;98905.97;5015502;28;20340;-50
2022/06/16 07:55:32;;;;;;;15.95;4.32;;;;;;;47.03;17.57;98900.53;5015458;28;20103;-52
2022/06/16 07:57:58;;;;;;;18.35;4.28;;;;;;;47.69;17.25;98909.19;5014828;28;20025;-53
2022/06/16 08:00:26;;;;;;;24.83;4.93;;;;;;;47.95;16.52;98914.72;5032528;28;20487;-52
2022/06/16 08:02:54;;;;;;;13.52;3.60;;;;;;;47.77;16.58;98913.28;5033277;28;20064;-51
2022/06/16 08:05:20;;;;;;;12.70;4.25;;;;;;;47.63;16.71;98911.00;5032971;28;20026;-52
2022/06/16 08:07:47;;;;;;;16.33;3.80;;;;;;;47.60;16.51;98918.22;5032995;28;20026;-51
2022/06/16 08:10:18;;;;;;;17.75;4.10;;;;;;;47.60;16.64;98912.66;5032907;28;20134;-51
2022/06/16 08:12:44;;;;;;;12.93;3.40;;;;;;;47.90;15.95;98918.06;5032973;28;20521;-52
2022/06/16 08:15:11;;;;;;;19.40;3.90;;;;;;;47.92;15.92;98919.19;5032598;28;20041;-52
2022/06/16 08:17:43;;;;;;;16.60;3.40;;;;;;;48.15;15.21;98920.78;5015139;28;20375;-53
2022/06/16 08:20:10;;;;;;;14.30;4.22;;;;;;;48.42;15.52;98929.81;5014882;28;20117;-53
2022/06/16 08:22:37;;;;;;;19.92;4.45;;;;;;;48.83;15.32;98931.53;5032943;28;20018;-52
2022/06/16 08:25:05;;;;;;;11.88;3.38;;;;;;;49.30;14.36;98933.31;5032588;28;20072;-52
2022/06/16 08:27:35;;;;;;;16.02;3.95;;;;;;;49.63;14.16;98934.81;5014865;28;20025;-52
2022/06/16 08:30:04;;;;;;;11.48;3.83;;;;;;;49.68;13.97;98935.00;5032604;28;20026;-52
2022/06/16 08:32:32;;;;;;;17.70;3.55;;;;;;;49.60;14.19;98936.53;5014814;28;20029;-53
2022/06/16 08:34:57;;;;;;;12.45;3.83;;;;;;;48.42;14.71;98940.97;5014732;28;20024;-53
2022/06/16 08:37:24;;;;;;;21.55;4.80;;;;;;;48.19;15.32;98937.38;5014573;28;20029;-52
2022/06/16 08:39:49;;;;;;;16.15;3.28;;;;;;;48.07;15.14;98933.38;5032349;28;20048;-53
2022/06/16 08:42:25;;;;;;;16.30;4.00;;;;;;;48.38;15.11;98941.13;5014551;28;20491;-53
2022/06/16 08:44:57;;;;;;;14.77;3.55;;;;;;;48.74;14.71;98934.25;5014615;28;20462;-52
2022/06/16 08:47:58;;;;;;;11.27;3.30;;;;;;;48.91;14.62;98943.19;5014534;28;20026;-51
2022/06/16 08:50:45;;;;;;;14.80;3.55;;;;;;;48.97;14.30;98930.97;5032270;28;20524;-53
2022/06/16 08:53:20;;;;;;;18.65;4.18;;;;;;;49.23;13.76;98930.81;5032200;28;20450;-53
2022/06/16 08:55:55;;;;;;;20.17;4.75;;;;;;;49.43;13.92;98935.25;5032164;28;20109;-53
2022/06/16 08:58:53;;;;;;;20.48;4.68;;;;;;;49.59;13.05;98935.00;5014356;28;20035;-53
2022/06/16 09:01:32;;;;;;;15.40;3.70;;;;;;;49.26;13.57;98940.28;5032127;28;20033;-52
2022/06/16 09:04:07;;;;;;;18.73;3.55;;;;;;;49.33;13.37;98931.63;5032091;28;20030;-53
2022/06/16 09:06:35;;;;;;;21.83;4.20;;;;;;;49.58;12.95;98933.44;5032045;28;20025;-54
2022/06/16 09:12:17;;;;;;;12.15;2.80;;;;;;;49.77;13.06;98940.63;5032236;28;20530;-52
2022/06/16 09:15:11;;;;;;;10.90;2.78;;;;;;;49.76;12.86;98941.88;5031688;28;20045;-53
2022/06/16 09:17:49;;;;;;;8.75;3.00;;;;;;;49.64;12.46;98948.31;5014215;28;20037;-53
2022/06/16 09:20:40;;;;;;;15.32;3.38;;;;;;;49.87;12.89;98943.44;5014244;28;20510;-52
2022/06/16 09:23:21;;;;;;;19.38;4.65;;;;;;;50.15;12.56;98942.25;5014091;28;20027;-52
2022/06/16 09:26:10;;;;;;;17.92;3.22;;;;;;;49.92;12.67;98948.41;5013991;28;20032;-52
2022/06/16 09:29:00;;;;;;;10.48;3.70;;;;;;;49.88;12.71;98945.00;5031355;28;20116;-52
2022/06/16 09:31:35;;;;;;;15.93;3.25;;;;;;;50.35;12.59;98949.38;5013424;28;20045;-53
2022/06/16 09:34:11;;;;;;;13.38;2.83;;;;;;;50.26;12.02;98947.38;5013962;28;20037;-52
2022/06/16 09:36:45;;;;;;;15.65;4.15;;;;;;;50.44;11.62;98952.19;5031706;28;20039;-53
2022/06/16 09:39:50;;;;;;;8.70;2.88;;;;;;;50.67;11.72;98950.75;5013859;28;20084;-52
2022/06/16 09:42:39;;;;;;;15.45;3.20;;;;;;;50.03;11.85;98945.94;5028482;28;20410;-52
2022/06/16 09:45:25;;;;;;;10.38;3.13;;;;;;;49.51;12.43;98947.69;5031071;28;20116;-51
2022/06/16 09:48:04;;;;;;;9.65;3.35;;;;;;;49.66;12.24;98945.84;5031623;28;20083;-51
2022/06/16 09:51:15;;;;;;;12.70;3.00;;;;;;;49.62;12.32;98956.38;5031595;28;20034;-53
2022/06/16 09:53:51;;;;;;;16.35;3.70;;;;;;;49.70;12.23;98954.06;5031500;28;20131;-53
2022/06/16 09:56:49;;;;;;;13.10;3.78;;;;;;;49.97;12.06;98956.19;5031523;28;20105;-54
2022/06/16 09:59:26;;;;;;;11.15;3.28;;;;;;;50.09;12.08;98951.69;5031442;28;20513;-53
2022/06/16 10:02:00;;;;;;;7.60;3.58;;;;;;;49.94;12.18;98951.50;5031496;28;20083;-52
2022/06/16 10:04:25;;;;;;;13.45;3.40;;;;;;;49.98;11.83;98946.56;5031469;28;20036;-53
2022/06/16 10:07:19;;;;;;;7.55;3.03;;;;;;;49.89;11.81;98952.09;5031442;28;20021;-52
2022/06/16 10:10:09;;;;;;;17.80;3.60;;;;;;;50.20;11.94;98949.22;5031472;28;20117;-53
2022/06/16 10:12:44;;;;;;;25.00;3.88;;;;;;;50.08;12.00;98944.56;5031379;28;20024;-53
2022/06/16 10:15:39;;;;;;;11.48;3.35;;;;;;;49.83;12.09;98949.19;5013368;28;20081;-53
2022/06/16 10:18:06;;;;;;;10.95;3.00;;;;;;;49.63;12.51;98955.16;5023870;28;20054;-53
2022/06/16 10:20:32;;;;;;;12.25;3.58;;;;;;;49.66;12.20;98945.84;5031183;28;20022;-52
2022/06/16 10:23:20;;;;;;;16.80;3.78;;;;;;;49.43;12.06;98952.75;5033674;28;20104;-52
2022/06/16 10:25:54;;;;;;;23.23;4.55;;;;;;;49.37;12.49;98958.16;5017215;28;20021;-51
2022/06/16 10:28:35;;;;;;;23.35;4.00;;;;;;;49.06;12.48;98951.81;5035144;28;20048;-53
2022/06/16 10:31:04;;;;;;;98.53;9.82;;;;;;;48.34;12.96;98951.59;5035124;28;20037;-51
2022/06/16 10:33:33;;;;;;;22.20;3.95;;;;;;;48.21;13.50;98959.97;5017037;28;20033;-52
2022/06/16 10:36:18;;;;;;;26.27;3.85;;;;;;;48.41;12.93;98956.91;5034665;28;20031;-53
2022/06/16 10:39:03;;;;;;;18.08;3.40;;;;;;;48.63;12.78;98956.13;5016882;28;20033;-52
2022/06/16 10:41:53;;;;;;;21.42;3.88;;;;;;;48.76;12.20;98959.66;5017097;28;20029;-52
2022/06/16 10:44:23;;;;;;;24.08;4.13;;;;;;;48.79;12.52;98948.38;5034604;28;20021;-52
2022/06/16 10:46:55;;;;;;;30.70;4.35;;;;;;;48.62;13.09;98952.59;5016768;28;20021;-50
2022/06/16 10:49:27;;;;;;;20.70;3.72;;;;;;;48.29;12.93;98954.97;5034563;28;20445;-51
2022/06/16 10:51:58;;;;;;;19.98;3.65;;;;;;;48.23;13.22;98951.16;5034503;28;20398;-52
2022/06/16 10:54:30;;;;;;;23.65;3.92;;;;;;;48.25;12.93;98952.25;5016640;28;20041;-53
2022/06/16 10:57:18;;;;;;;15.25;3.00;;;;;;;48.11;13.04;98947.19;5034252;28;20018;-53
2022/06/16 11:00:13;;;;;;;15.55;3.00;;;;;;;48.26;12.93;98955.81;5034358;28;20109;-52
2022/06/16 11:02:58;;;;;;;11.55;3.03;;;;;;;48.57;13.31;98962.28;5025945;28;20033;-53
2022/06/16 11:05:25;;;;;;;13.23;3.92;;;;;;;48.69;12.46;98949.56;5034298;28;20471;-53
2022/06/16 11:07:51;;;;;;;10.93;2.95;;;;;;;48.58;13.06;98952.72;5034257;28;20044;-52
2022/06/16 11:10:32;;;;;;;9.88;3.08;;;;;;;48.68;12.89;98961.16;5016366;28;20060;-52
2022/06/16 11:12:58;;;;;;;13.82;2.80;;;;;;;48.89;12.74;98948.44;5016313;28;20025;-53
2022/06/16 11:15:31;;;;;;;11.23;2.58;;;;;;;48.62;12.64;98957.34;5033901;28;20099;-53
2022/06/16 11:18:01;;;;;;;12.23;3.25;;;;;;;48.68;12.92;98953.59;5016271;28;20046;-52
2022/06/16 11:20:45;;;;;;;12.90;3.08;;;;;;;48.97;12.87;98949.72;5016133;28;20026;-52
2022/06/16 11:23:22;;;;;;;15.43;3.22;;;;;;;48.50;12.38;98956.19;5033889;28;20025;-53
2022/06/16 11:26:06;;;;;;;10.40;2.75;;;;;;;48.54;12.39;98960.41;5016130;28;20499;-52
2022/06/16 11:28:45;;;;;;;10.43;3.85;;;;;;;48.24;12.93;98952.69;5033834;28;20108;-53
2022/06/16 11:31:37;;;;;;;10.45;2.80;;;;;;;47.85;13.16;98949.22;5033993;28;20449;-53
2022/06/16 11:34:14;;;;;;;12.65;3.22;;;;;;;47.97;13.39;98942.88;5007766;28;20097;-53
2022/06/16 11:37:05;;;;;;;11.55;3.10;;;;;;;47.85;13.75;98943.66;5015798;28;20498;-53
2022/06/16 11:39:46;;;;;;;12.98;3.35;;;;;;;47.95;13.52;98937.75;5016044;28;20087;-51
2022/06/16 11:42:18;;;;;;;6.85;2.53;;;;;;;47.48;13.52;98938.47;5033734;28;20026;-51
2022/06/16 11:44:58;;;;;;;7.53;2.65;;;;;;;47.08;13.62;98949.97;5033506;28;20029;-52
2022/06/16 11:47:41;;;;;;;9.57;3.40;;;;;;;46.76;13.93;98942.56;5015609;28;20029;-53
2022/06/16 11:50:25;;;;;;;11.93;3.60;;;;;;;45.37;14.82;98945.59;5033372;28;20037;-53
2022/06/16 11:52:54;;;;;;;8.77;3.00;;;;;;;44.07;15.42;98946.50;5033319;28;20033;-53
2022/06/16 11:55:54;;;;;;;12.13;2.90;;;;;;;43.49;16.52;98936.31;5015480;28;20029;-53
2022/06/16 11:58:34;;;;;;;8.15;2.67;;;;;;;43.81;15.96;98937.81;5006923;28;20430;-53
2022/06/16 12:01:17;;;;;;;12.90;2.90;;;;;;;44.51;15.64;98929.94;5015627;28;20045;-53
2022/06/16 12:04:13;;;;;;;12.98;3.63;;;;;;;45.35;15.46;98908.44;5033190;28;20022;-53
2022/06/16 12:07:11;;;;;;;9.68;3.25;;;;;;;46.00;15.02;98911.25;5015347;28;20597;-53
2022/06/16 12:10:08;;;;;;;11.57;2.72;;;;;;;45.21;15.04;98906.75;5033064;28;20100;-52